Time;durP1;ratioP1;P1;durP2;ratioP2;P2;SDS_P1;SDS_P2;PMS_P1;PMS_P2;Temp;Humidity;BMP_temperature;BMP_pressure;BME280_temperature;BME280_humidity;BME280_pressure;Samples;Min_cycle;Max_cycle;Signal;HPM_P1;HPM_P2
2021/12/25 00:01:17;;;;;;;38.23;18.07;;;;;;;;;;5005227;28;20223;-87
2021/12/25 00:03:43;;;;;;;34.17;17.33;;;;;;;;;;5012043;28;20237;-87
2021/12/25 00:06:09;;;;;;;36.40;17.53;;;;;;;;;;5017209;28;20189;-87
2021/12/25 00:08:34;;;;;;;33.63;17.67;;;;;;;;;;5032928;28;20684;-88
2021/12/25 00:11:01;;;;;;;31.80;16.43;;;;;;;;;;5021347;28;20189;-88
2021/12/25 00:13:27;;;;;;;37.80;17.33;;;;;;;;;;5011737;28;20209;-87
2021/12/25 00:15:53;;;;;;;33.20;16.10;;;;;;;;;;5012483;28;20186;-88
2021/12/25 00:18:20;;;;;;;33.47;17.37;;;;;;;;;;5018420;28;20225;-88
2021/12/25 00:20:46;;;;;;;33.53;16.87;;;;;;;;;;5034517;28;20683;-88
2021/12/25 00:23:12;;;;;;;32.87;16.37;;;;;;;;;;5013791;28;20273;-87
2021/12/25 00:25:46;;;;;;;33.90;17.07;;;;;;;;;;5012339;28;20260;-87
2021/12/25 00:31:02;;;;;;;32.60;16.10;;;;;;;;;;5034992;28;20197;-87
2021/12/25 00:33:48;;;;;;;27.77;13.97;;;;;;;;;;5013594;28;20186;-87
2021/12/25 00:36:16;;;;;;;28.97;14.63;;;;;;;;;;5015895;28;20182;-87
2021/12/25 00:38:42;;;;;;;30.70;13.67;;;;;;;;;;5010699;28;20365;-87
2021/12/25 00:41:09;;;;;;;29.33;14.23;;;;;;;;;;5014110;28;20236;-86
2021/12/25 00:43:35;;;;;;;29.87;13.50;;;;;;;;;;5017506;28;20206;-86
2021/12/25 00:46:00;;;;;;;28.77;13.37;;;;;;;;;;5008038;28;20218;-87
2021/12/25 00:48:26;;;;;;;23.50;11.83;;;;;;;;;;5017191;28;20239;-88
2021/12/25 00:50:52;;;;;;;26.90;13.47;;;;;;;;;;5013924;28;20567;-87
2021/12/25 00:53:18;;;;;;;27.73;13.13;;;;;;;;;;5015394;28;20209;-87
2021/12/25 00:55:43;;;;;;;27.67;12.87;;;;;;;;;;5014084;28;20208;-87
2021/12/25 00:58:09;;;;;;;29.37;12.83;;;;;;;;;;5016441;28;20202;-87
2021/12/25 01:00:34;;;;;;;26.53;11.60;;;;;;;;;;5018544;28;20204;-87
2021/12/25 01:02:59;;;;;;;22.97;10.80;;;;;;;;;;5035033;28;20202;-87
2021/12/25 01:05:25;;;;;;;22.93;11.67;;;;;;;;;;5016882;28;20192;-87
2021/12/25 01:07:50;;;;;;;24.03;11.33;;;;;;;;;;5010530;28;20190;-87
2021/12/25 01:10:19;;;;;;;26.07;11.70;;;;;;;;;;5017061;28;20201;-87
2021/12/25 01:13:08;;;;;;;24.93;10.73;;;;;;;;;;5016156;28;20540;-87
2021/12/25 01:31:18;;;;;;;20.73;8.77;;;;;;;;;;5033117;28;20324;-87
2021/12/25 01:34:17;;;;;;;19.13;9.00;;;;;;;;;;5012831;28;20186;-87
2021/12/25 01:39:16;;;;;;;18.63;8.50;;;;;;;;;;5027929;28;20224;-86
2021/12/25 01:42:00;;;;;;;22.23;8.23;;;;;;;;;;5017282;28;20518;-87
2021/12/25 01:49:59;;;;;;;20.00;6.60;;;;;;;;;;5031258;28;20260;-87
2021/12/25 01:52:26;;;;;;;15.73;6.93;;;;;;;;;;5033974;28;20182;-86
2021/12/25 01:55:00;;;;;;;19.90;7.43;;;;;;;;;;5009095;28;20244;-86
2021/12/25 01:57:26;;;;;;;13.53;6.70;;;;;;;;;;5015623;28;20660;-86
2021/12/25 01:59:52;;;;;;;14.53;6.10;;;;;;;;;;5010547;28;20197;-87
2021/12/25 02:02:17;;;;;;;9.80;5.37;;;;;;;;;;5015862;28;20309;-86
2021/12/25 02:04:43;;;;;;;12.40;5.90;;;;;;;;;;5008175;28;20205;-87
2021/12/25 02:07:09;;;;;;;11.20;5.50;;;;;;;;;;5015607;28;20641;-86
2021/12/25 02:09:34;;;;;;;11.50;5.20;;;;;;;;;;5012274;28;20196;-87
2021/12/25 02:12:00;;;;;;;12.27;5.03;;;;;;;;;;5008931;28;20217;-86
2021/12/25 02:14:26;;;;;;;10.60;4.00;;;;;;;;;;5032591;28;20231;-86
2021/12/25 02:16:56;;;;;;;11.77;4.83;;;;;;;;;;5013835;28;20855;-86
2021/12/25 02:19:47;;;;;;;8.53;4.50;;;;;;;;;;5031950;28;20166;-88
2021/12/25 02:22:13;;;;;;;7.17;3.63;;;;;;;;;;5014905;28;20277;-86
2021/12/25 02:24:39;;;;;;;8.67;3.43;;;;;;;;;;5015708;28;20261;-87
2021/12/25 02:27:05;;;;;;;6.97;3.00;;;;;;;;;;5009323;28;20331;-87
2021/12/25 02:29:31;;;;;;;8.00;3.07;;;;;;;;;;5017334;28;20170;-86
2021/12/25 02:31:58;;;;;;;5.17;2.37;;;;;;;;;;5011996;28;20240;-87
2021/12/25 02:34:24;;;;;;;5.27;2.50;;;;;;;;;;5015343;28;20193;-87
2021/12/25 02:36:50;;;;;;;6.63;2.30;;;;;;;;;;5014295;28;20182;-86
2021/12/25 02:39:15;;;;;;;5.60;2.20;;;;;;;;;;5015834;28;20182;-87
2021/12/25 02:41:42;;;;;;;3.80;2.03;;;;;;;;;;5029372;28;20617;-88
2021/12/25 02:44:07;;;;;;;4.90;1.60;;;;;;;;;;5010727;28;20726;-86
2021/12/25 02:46:33;;;;;;;5.17;2.03;;;;;;;;;;5030115;28;20217;-87
2021/12/25 02:48:59;;;;;;;3.37;1.20;;;;;;;;;;5014157;28;20188;-86
2021/12/25 02:51:25;;;;;;;2.57;0.80;;;;;;;;;;5027723;28;20188;-86
2021/12/25 02:53:50;;;;;;;1.73;0.70;;;;;;;;;;5014326;28;20174;-87
2021/12/25 02:56:16;;;;;;;4.80;0.90;;;;;;;;;;5008446;28;20197;-86
2021/12/25 02:58:41;;;;;;;5.83;0.93;;;;;;;;;;5033192;28;20257;-86
2021/12/25 03:01:10;;;;;;;2.63;0.77;;;;;;;;;;5011608;28;20341;-86
2021/12/25 03:03:36;;;;;;;1.10;0.43;;;;;;;;;;4997178;28;20290;-86
2021/12/25 03:06:07;;;;;;;1.20;0.60;;;;;;;;;;5017655;28;20275;-86
2021/12/25 03:08:32;;;;;;;3.37;0.60;;;;;;;;;;5006477;28;20194;-86
2021/12/25 03:10:59;;;;;;;1.83;0.50;;;;;;;;;;5013604;28;20179;-86
2021/12/25 03:13:34;;;;;;;0.93;0.50;;;;;;;;;;5007960;28;20186;-88
2021/12/25 03:16:02;;;;;;;3.70;0.77;;;;;;;;;;5011575;28;20719;-86
2021/12/25 03:18:32;;;;;;;3.33;0.70;;;;;;;;;;5008122;28;20257;-87
2021/12/25 03:21:02;;;;;;;3.07;0.57;;;;;;;;;;5006217;28;20188;-86
2021/12/25 03:23:29;;;;;;;2.13;0.60;;;;;;;;;;5012805;28;20205;-87
2021/12/25 03:25:57;;;;;;;1.90;0.50;;;;;;;;;;5011946;28;20549;-86
2021/12/25 03:28:25;;;;;;;2.83;0.67;;;;;;;;;;5008439;28;20187;-86
2021/12/25 03:30:51;;;;;;;0.67;0.40;;;;;;;;;;5017809;28;20190;-86
2021/12/25 03:33:20;;;;;;;2.10;0.60;;;;;;;;;;5020839;28;20186;-86
2021/12/25 03:35:47;;;;;;;2.63;0.70;;;;;;;;;;5014815;28;20179;-87
2021/12/25 03:38:16;;;;;;;2.47;0.50;;;;;;;;;;5019956;28;20199;-87
2021/12/25 03:40:42;;;;;;;2.07;0.60;;;;;;;;;;5007267;28;20195;-87
2021/12/25 03:43:07;;;;;;;1.90;0.43;;;;;;;;;;5012787;28;20203;-87
2021/12/25 03:45:34;;;;;;;2.77;0.50;;;;;;;;;;5012757;28;20187;-87
2021/12/25 03:48:59;;;;;;;1.60;0.37;;;;;;;;;;5010515;28;20189;-86
2021/12/25 03:58:50;;;;;;;1.97;0.50;;;;;;;;;;5013002;28;20221;-86
2021/12/25 04:01:28;;;;;;;3.20;0.70;;;;;;;;;;5019781;28;20633;-87
2021/12/25 04:04:09;;;;;;;1.93;0.60;;;;;;;;;;5017535;28;20193;-86
2021/12/25 04:06:36;;;;;;;1.33;0.60;;;;;;;;;;5011128;28;20273;-86
2021/12/25 04:09:09;;;;;;;1.87;0.40;;;;;;;;;;5017325;28;20174;-86
2021/12/25 04:11:35;;;;;;;1.53;0.40;;;;;;;;;;5009533;28;20193;-86
2021/12/25 04:14:01;;;;;;;3.43;0.67;;;;;;;;;;5016084;28;20170;-86
2021/12/25 04:16:26;;;;;;;0.67;0.33;;;;;;;;;;5017850;28;20193;-86
2021/12/25 04:18:53;;;;;;;1.57;0.60;;;;;;;;;;5033814;28;20340;-86
2021/12/25 04:21:19;;;;;;;1.53;0.80;;;;;;;;;;5015066;28;20193;-86
2021/12/25 04:23:45;;;;;;;0.73;0.70;;;;;;;;;;5008551;28;20271;-86
2021/12/25 04:26:12;;;;;;;2.00;0.63;;;;;;;;;;5030662;28;20194;-86
2021/12/25 04:28:40;;;;;;;1.63;0.60;;;;;;;;;;5029656;28;20182;-85
2021/12/25 05:04:12;;;;;;;2.17;0.50;;;;;;;;;;5029063;28;20342;-85
2021/12/25 05:06:37;;;;;;;1.40;0.60;;;;;;;;;;5011435;28;20205;-85
2021/12/25 05:09:03;;;;;;;3.90;0.50;;;;;;;;;;5014832;28;20186;-85
2021/12/25 05:11:28;;;;;;;1.33;0.70;;;;;;;;;;5018302;28;20192;-85
2021/12/25 05:13:54;;;;;;;3.37;0.47;;;;;;;;;;5010184;28;20213;-85
2021/12/25 05:16:20;;;;;;;3.40;0.63;;;;;;;;;;5013617;28;20234;-85
2021/12/25 05:18:46;;;;;;;1.70;0.53;;;;;;;;;;5013580;28;20182;-85
2021/12/25 05:21:13;;;;;;;1.37;0.67;;;;;;;;;;5013810;28;20689;-85
2021/12/25 05:23:38;;;;;;;2.07;0.63;;;;;;;;;;5013629;28;20198;-85
2021/12/25 05:26:04;;;;;;;3.57;0.63;;;;;;;;;;5012792;28;20197;-85
2021/12/25 05:28:39;;;;;;;2.00;0.50;;;;;;;;;;5011660;28;20291;-85
2021/12/25 05:31:05;;;;;;;3.27;0.50;;;;;;;;;;5010502;28;20185;-85
2021/12/25 05:33:30;;;;;;;4.23;0.43;;;;;;;;;;5016640;28;20182;-85
2021/12/25 05:35:56;;;;;;;1.33;0.50;;;;;;;;;;5013483;28;20178;-85
2021/12/25 05:38:22;;;;;;;4.23;0.73;;;;;;;;;;5017648;28;20209;-85
2021/12/25 05:40:48;;;;;;;2.73;0.97;;;;;;;;;;5010894;28;20193;-85
2021/12/25 05:43:14;;;;;;;3.73;0.77;;;;;;;;;;5008577;28;20248;-84
2021/12/25 05:45:40;;;;;;;5.87;1.00;;;;;;;;;;5012624;28;20186;-85
2021/12/25 05:48:06;;;;;;;2.37;0.97;;;;;;;;;;5027083;28;20265;-84
2021/12/25 05:50:31;;;;;;;2.33;1.30;;;;;;;;;;5012529;28;20201;-85
2021/12/25 05:52:57;;;;;;;1.70;1.03;;;;;;;;;;5015427;28;20175;-85
2021/12/25 05:55:26;;;;;;;2.37;1.13;;;;;;;;;;5010470;28;20182;-85
2021/12/25 05:57:52;;;;;;;3.77;1.13;;;;;;;;;;5029605;28;20222;-85
2021/12/25 06:00:22;;;;;;;2.40;1.30;;;;;;;;;;5012182;28;20217;-84
2021/12/25 06:02:48;;;;;;;2.23;1.30;;;;;;;;;;5010274;28;20392;-85
2021/12/25 06:05:14;;;;;;;6.77;1.30;;;;;;;;;;5018682;28;20185;-84
2021/12/25 06:07:39;;;;;;;3.70;1.23;;;;;;;;;;5005022;28;20240;-84
2021/12/25 06:10:08;;;;;;;2.33;1.20;;;;;;;;;;5014167;28;20173;-85
2021/12/25 06:12:36;;;;;;;2.40;1.20;;;;;;;;;;5012254;28;20210;-85
2021/12/25 06:15:02;;;;;;;2.67;1.33;;;;;;;;;;5014910;28;20196;-85
2021/12/25 06:17:28;;;;;;;4.30;1.17;;;;;;;;;;5028252;28;20208;-85
2021/12/25 06:19:54;;;;;;;1.77;0.73;;;;;;;;;;5014963;28;20253;-85
2021/12/25 06:22:19;;;;;;;2.57;1.33;;;;;;;;;;5013203;28;20345;-85
2021/12/25 06:24:49;;;;;;;0.93;0.70;;;;;;;;;;5012653;28;20659;-85
2021/12/25 06:27:16;;;;;;;2.27;1.13;;;;;;;;;;5010326;28;20193;-85
2021/12/25 06:29:41;;;;;;;2.13;0.80;;;;;;;;;;5010208;28;20181;-84
2021/12/25 06:32:07;;;;;;;1.50;0.73;;;;;;;;;;5027983;28;20205;-84
2021/12/25 06:34:32;;;;;;;2.20;0.53;;;;;;;;;;5011870;28;20202;-85
2021/12/25 06:36:58;;;;;;;1.40;0.73;;;;;;;;;;5014931;28;20244;-84
2021/12/25 06:39:23;;;;;;;2.63;0.87;;;;;;;;;;5027714;28;20225;-84
2021/12/25 06:41:49;;;;;;;1.07;0.70;;;;;;;;;;5015210;28;20214;-85
2021/12/25 06:44:14;;;;;;;1.90;0.73;;;;;;;;;;5029924;28;20205;-84
2021/12/25 06:46:41;;;;;;;1.00;0.50;;;;;;;;;;5031372;28;20277;-85
2021/12/25 06:49:06;;;;;;;2.27;0.70;;;;;;;;;;5025872;28;20198;-84
2021/12/25 06:51:34;;;;;;;2.50;0.90;;;;;;;;;;5010379;28;20661;-84
2021/12/25 06:54:01;;;;;;;5.50;0.60;;;;;;;;;;5011379;28;20868;-85
2021/12/25 06:56:26;;;;;;;1.80;0.50;;;;;;;;;;5014056;28;20691;-84
2021/12/25 06:58:51;;;;;;;2.87;0.27;;;;;;;;;;5030635;28;20237;-85
2021/12/25 07:01:17;;;;;;;0.60;0.30;;;;;;;;;;5021064;28;20225;-85
2021/12/25 07:03:42;;;;;;;1.07;0.40;;;;;;;;;;5014495;28;20353;-84
2021/12/25 07:06:09;;;;;;;1.37;0.40;;;;;;;;;;5014390;28;20191;-84
2021/12/25 07:08:35;;;;;;;0.90;0.50;;;;;;;;;;5014793;28;20198;-84
2021/12/25 07:11:00;;;;;;;3.00;0.43;;;;;;;;;;5012768;28;20280;-84
2021/12/25 07:13:26;;;;;;;1.10;0.40;;;;;;;;;;5017744;28;20186;-84
2021/12/25 07:15:51;;;;;;;0.73;0.47;;;;;;;;;;5018848;28;20193;-84
2021/12/25 07:18:16;;;;;;;0.93;0.20;;;;;;;;;;5016223;28;20214;-84
2021/12/25 07:20:42;;;;;;;5.13;0.50;;;;;;;;;;5017841;28;20204;-84
2021/12/25 07:23:08;;;;;;;1.10;0.30;;;;;;;;;;5014936;28;20217;-84
2021/12/25 07:25:33;;;;;;;3.23;0.50;;;;;;;;;;5031958;28;20185;-84
2021/12/25 07:27:59;;;;;;;2.87;0.40;;;;;;;;;;5010245;28;20520;-84
2021/12/25 07:30:24;;;;;;;1.53;0.30;;;;;;;;;;5015162;28;20190;-84
2021/12/25 07:32:52;;;;;;;0.00;0.00;;;;;;;;;;5016754;28;20487;-83
2021/12/25 07:35:18;;;;;;;0.27;0.20;;;;;;;;;;5016399;28;20202;-84
2021/12/25 07:37:43;;;;;;;1.17;0.30;;;;;;;;;;5014815;28;20805;-83
2021/12/25 07:40:09;;;;;;;4.43;0.53;;;;;;;;;;5032718;28;20224;-84
2021/12/25 07:42:35;;;;;;;2.27;0.33;;;;;;;;;;5011054;28;20206;-84
2021/12/25 07:45:06;;;;;;;1.50;0.40;;;;;;;;;;5022819;28;20193;-85
2021/12/25 07:47:35;;;;;;;2.43;0.30;;;;;;;;;;5011408;28;20259;-85
2021/12/25 07:50:04;;;;;;;3.10;0.20;;;;;;;;;;5008179;28;20656;-84
2021/12/25 07:52:32;;;;;;;0.60;0.03;;;;;;;;;;5009255;28;20318;-84
2021/12/25 07:54:58;;;;;;;0.87;0.17;;;;;;;;;;5015953;28;20327;-83
2021/12/25 07:57:23;;;;;;;4.63;0.30;;;;;;;;;;5011542;28;20736;-86
2021/12/25 07:59:53;;;;;;;0.50;0.20;;;;;;;;;;5030266;28;20657;-84
2021/12/25 08:02:18;;;;;;;1.80;0.20;;;;;;;;;;5028722;28;20221;-83
2021/12/25 08:04:44;;;;;;;1.80;0.10;;;;;;;;;;5007564;28;20185;-84
2021/12/25 08:07:10;;;;;;;2.13;0.30;;;;;;;;;;5030532;28;20272;-83
2021/12/25 08:09:36;;;;;;;2.40;0.20;;;;;;;;;;5031929;28;20190;-83
2021/12/25 08:12:02;;;;;;;2.30;0.30;;;;;;;;;;5015195;28;20171;-85
2021/12/25 08:14:29;;;;;;;0.70;0.00;;;;;;;;;;5028961;28;20276;-84
2021/12/25 08:16:56;;;;;;;1.60;0.23;;;;;;;;;;5013037;28;20246;-83
2021/12/25 08:19:23;;;;;;;0.67;0.20;;;;;;;;;;4685586;28;10000328;-85
2021/12/25 08:21:49;;;;;;;0.87;0.30;;;;;;;;;;5019975;28;20174;-84
2021/12/25 08:24:15;;;;;;;0.20;0.10;;;;;;;;;;5010578;28;20200;-84
2021/12/25 08:26:41;;;;;;;7.70;0.80;;;;;;;;;;5014898;28;20194;-86
2021/12/25 08:29:07;;;;;;;1.10;0.40;;;;;;;;;;5008198;28;20268;-83
2021/12/25 08:31:36;;;;;;;1.90;0.30;;;;;;;;;;5031684;28;20273;-87
2021/12/25 08:34:02;;;;;;;3.43;0.47;;;;;;;;;;5024292;28;20190;-83
2021/12/25 08:36:27;;;;;;;0.47;0.10;;;;;;;;;;5015034;28;20185;-84
2021/12/25 08:38:55;;;;;;;1.90;0.20;;;;;;;;;;5011898;28;20198;-84
2021/12/25 08:41:25;;;;;;;0.53;0.10;;;;;;;;;;5013127;28;20292;-84
2021/12/25 08:43:56;;;;;;;0.40;0.20;;;;;;;;;;5011041;28;20181;-84
2021/12/25 08:46:42;;;;;;;0.10;0.00;;;;;;;;;;5014492;28;20190;-84
2021/12/25 08:49:09;;;;;;;0.80;0.30;;;;;;;;;;5012343;28;20232;-84
2021/12/25 08:51:35;;;;;;;0.97;0.30;;;;;;;;;;5004333;28;20201;-84
2021/12/25 08:54:00;;;;;;;0.20;0.10;;;;;;;;;;5033573;28;20178;-84
2021/12/25 08:56:27;;;;;;;0.77;0.20;;;;;;;;;;5011644;28;20185;-84
2021/12/25 08:59:08;;;;;;;0.57;0.20;;;;;;;;;;5010712;28;20834;-84
2021/12/25 09:01:34;;;;;;;0.20;0.10;;;;;;;;;;5027987;28;20249;-84
2021/12/25 09:04:00;;;;;;;0.50;0.20;;;;;;;;;;5015424;28;20558;-84
2021/12/25 09:06:26;;;;;;;2.10;0.10;;;;;;;;;;5008741;28;20179;-84
2021/12/25 09:08:52;;;;;;;2.00;0.23;;;;;;;;;;5016974;28;20553;-84
2021/12/25 09:11:18;;;;;;;0.10;0.10;;;;;;;;;;5014757;28;20194;-84
2021/12/25 09:13:43;;;;;;;0.20;0.00;;;;;;;;;;5012434;28;20193;-84
2021/12/25 09:16:11;;;;;;;0.83;0.30;;;;;;;;;;5012920;28;20272;-84
2021/12/25 09:18:38;;;;;;;1.83;0.10;;;;;;;;;;5014227;28;20211;-85
2021/12/25 09:21:04;;;;;;;0.60;0.10;;;;;;;;;;5011769;28;20208;-84
2021/12/25 09:23:29;;;;;;;1.70;0.20;;;;;;;;;;5017486;28;20241;-84
2021/12/25 09:25:54;;;;;;;1.27;0.10;;;;;;;;;;5011129;28;20187;-85
2021/12/25 09:28:20;;;;;;;0.33;0.00;;;;;;;;;;5014162;28;20179;-84
2021/12/25 09:30:46;;;;;;;1.43;0.10;;;;;;;;;;5032065;28;20189;-84
2021/12/25 09:33:11;;;;;;;0.80;0.20;;;;;;;;;;5008399;28;20244;-84
2021/12/25 09:35:37;;;;;;;0.67;0.10;;;;;;;;;;5013219;28;20268;-85
2021/12/25 09:38:03;;;;;;;1.03;0.20;;;;;;;;;;5013118;28;20182;-84
2021/12/25 09:40:28;;;;;;;3.30;0.20;;;;;;;;;;5012373;28;20649;-85
2021/12/25 09:42:55;;;;;;;0.60;0.10;;;;;;;;;;5011865;28;20210;-83
2021/12/25 09:45:21;;;;;;;0.17;0.10;;;;;;;;;;5017855;28;20189;-84
2021/12/25 09:47:49;;;;;;;0.10;0.00;;;;;;;;;;5011876;28;20193;-84
2021/12/25 09:50:15;;;;;;;0.80;0.40;;;;;;;;;;5013017;28;20178;-85
2021/12/25 09:52:42;;;;;;;1.93;0.10;;;;;;;;;;5015171;28;20277;-83
2021/12/25 09:55:08;;;;;;;0.37;0.10;;;;;;;;;;5036217;28;20205;-84
2021/12/25 09:57:33;;;;;;;3.00;0.20;;;;;;;;;;5014982;28;20189;-84
2021/12/25 09:59:58;;;;;;;1.77;0.33;;;;;;;;;;5012708;28;20577;-85
2021/12/25 10:02:24;;;;;;;0.57;0.10;;;;;;;;;;5011047;28;20250;-84
2021/12/25 10:04:56;;;;;;;0.10;0.00;;;;;;;;;;5008579;28;20563;-84
2021/12/25 10:07:29;;;;;;;0.77;0.10;;;;;;;;;;5005512;28;20194;-85
2021/12/25 10:10:13;;;;;;;3.30;0.40;;;;;;;;;;5006926;28;20289;-85
2021/12/25 10:12:45;;;;;;;2.03;0.10;;;;;;;;;;5006815;28;20559;-85
2021/12/25 10:15:14;;;;;;;2.93;0.27;;;;;;;;;;5007697;28;20278;-84
2021/12/25 10:17:59;;;;;;;3.13;0.10;;;;;;;;;;5003183;28;20199;-84
2021/12/25 10:20:29;;;;;;;0.97;0.10;;;;;;;;;;4996610;28;20194;-85
2021/12/25 10:23:15;;;;;;;0.10;0.10;;;;;;;;;;4999553;28;20215;-84
2021/12/25 10:25:46;;;;;;;0.67;0.10;;;;;;;;;;4998106;28;20198;-84
2021/12/25 10:28:19;;;;;;;0.40;0.10;;;;;;;;;;5011638;28;20708;-84
2021/12/25 10:30:52;;;;;;;0.20;0.07;;;;;;;;;;5004938;28;20184;-84
2021/12/25 10:33:25;;;;;;;0.97;0.20;;;;;;;;;;5012034;28;20191;-84
2021/12/25 10:35:51;;;;;;;0.53;0.10;;;;;;;;;;5010680;28;20264;-84
2021/12/25 10:38:17;;;;;;;1.37;0.30;;;;;;;;;;5012712;28;20190;-83
2021/12/25 10:40:46;;;;;;;0.10;0.10;;;;;;;;;;5009999;28;20193;-84
2021/12/25 10:43:20;;;;;;;1.63;0.50;;;;;;;;;;4997358;28;20293;-85
2021/12/25 10:45:59;;;;;;;0.40;0.10;;;;;;;;;;5004236;28;20194;-84
2021/12/25 10:48:29;;;;;;;0.40;0.20;;;;;;;;;;5011886;28;20612;-84
2021/12/25 10:50:57;;;;;;;0.47;0.17;;;;;;;;;;5001841;28;20222;-84
2021/12/25 10:53:22;;;;;;;2.03;0.20;;;;;;;;;;5016067;28;20179;-84
2021/12/25 10:55:48;;;;;;;0.53;0.30;;;;;;;;;;5008216;28;20214;-84
2021/12/25 10:58:22;;;;;;;1.13;0.20;;;;;;;;;;5014578;28;20202;-84
2021/12/25 11:00:53;;;;;;;0.40;0.20;;;;;;;;;;5011897;28;20201;-85
2021/12/25 11:03:26;;;;;;;0.73;0.10;;;;;;;;;;5015441;28;20206;-84
2021/12/25 11:05:52;;;;;;;1.53;0.20;;;;;;;;;;5022266;28;20196;-85
2021/12/25 11:08:24;;;;;;;0.40;0.10;;;;;;;;;;5032369;28;20205;-84
2021/12/25 11:11:13;;;;;;;0.60;0.10;;;;;;;;;;5018169;28;20604;-84
2021/12/25 11:13:44;;;;;;;0.60;0.13;;;;;;;;;;5012374;28;20244;-84
2021/12/25 11:16:14;;;;;;;0.90;0.20;;;;;;;;;;5019235;28;20190;-85
2021/12/25 11:19:14;;;;;;;0.33;0.20;;;;;;;;;;5034389;28;20190;-86
2021/12/25 11:21:51;;;;;;;0.83;0.30;;;;;;;;;;5017867;28;20598;-85
2021/12/25 11:24:20;;;;;;;2.67;0.30;;;;;;;;;;5013552;28;20248;-86
2021/12/25 11:26:55;;;;;;;0.70;0.30;;;;;;;;;;5022568;28;20190;-86
2021/12/25 11:29:26;;;;;;;0.23;0.10;;;;;;;;;;5028601;28;20186;-85
2021/12/25 11:31:54;;;;;;;0.40;0.20;;;;;;;;;;5032958;28;20598;-84
2021/12/25 11:34:21;;;;;;;1.57;0.20;;;;;;;;;;5030709;28;20188;-84
2021/12/25 11:36:50;;;;;;;0.30;0.10;;;;;;;;;;5016750;28;20221;-85
2021/12/25 11:39:17;;;;;;;1.17;0.40;;;;;;;;;;5024068;28;20556;-85
2021/12/25 11:41:44;;;;;;;2.07;0.20;;;;;;;;;;5015309;28;20190;-85
2021/12/25 11:44:36;;;;;;;1.90;0.30;;;;;;;;;;5009942;28;20237;-87
2021/12/25 11:47:03;;;;;;;1.83;0.20;;;;;;;;;;5010881;28;20190;-86
2021/12/25 11:49:28;;;;;;;3.47;0.20;;;;;;;;;;5011773;28;20571;-86
2021/12/25 11:51:54;;;;;;;1.30;0.20;;;;;;;;;;5016295;28;20193;-84
2021/12/25 11:59:48;;;;;;;2.47;0.43;;;;;;;;;;5031315;28;20249;-85
2021/12/25 12:02:38;;;;;;;1.37;0.20;;;;;;;;;;5032078;28;20587;-85
2021/12/25 12:05:25;;;;;;;0.60;0.20;;;;;;;;;;5011432;28;20190;-85
2021/12/25 12:07:59;;;;;;;0.77;0.23;;;;;;;;;;5032663;28;20205;-86
2021/12/25 12:10:44;;;;;;;1.63;0.13;;;;;;;;;;5013302;28;20266;-86
2021/12/25 12:13:24;;;;;;;0.87;0.10;;;;;;;;;;5015748;28;20593;-86
2021/12/25 12:15:53;;;;;;;2.43;0.20;;;;;;;;;;5010620;28;20198;-86
2021/12/25 12:18:25;;;;;;;0.27;0.10;;;;;;;;;;5014874;28;20213;-85
2021/12/25 12:20:52;;;;;;;0.93;0.20;;;;;;;;;;5002500;28;20665;-85
2021/12/25 12:26:13;;;;;;;0.50;0.20;;;;;;;;;;5027796;28;20280;-86
2021/12/25 12:28:53;;;;;;;0.77;0.20;;;;;;;;;;5013363;28;20189;-86
2021/12/25 12:31:45;;;;;;;0.67;0.33;;;;;;;;;;5009392;28;20672;-86
2021/12/25 12:34:34;;;;;;;0.30;0.20;;;;;;;;;;5024817;28;20186;-85
2021/12/25 12:37:16;;;;;;;3.83;0.10;;;;;;;;;;5010570;28;20182;-84
2021/12/25 12:40:06;;;;;;;0.83;0.30;;;;;;;;;;5011620;28;20197;-85
2021/12/25 12:42:37;;;;;;;1.13;0.23;;;;;;;;;;5008684;28;20194;-86
2021/12/25 12:45:09;;;;;;;0.83;0.30;;;;;;;;;;5013822;28;20201;-85
2021/12/25 12:47:34;;;;;;;1.47;0.30;;;;;;;;;;5008460;28;20200;-85
2021/12/25 12:49:59;;;;;;;1.13;0.30;;;;;;;;;;5013791;28;20752;-85
2021/12/25 12:52:31;;;;;;;0.53;0.20;;;;;;;;;;5008805;28;20273;-85
2021/12/25 12:55:24;;;;;;;1.37;0.20;;;;;;;;;;5007314;28;20205;-85
2021/12/25 12:58:07;;;;;;;0.27;0.10;;;;;;;;;;5004687;28;20222;-85
2021/12/25 13:00:33;;;;;;;1.93;0.30;;;;;;;;;;5007382;28;20213;-85
2021/12/25 13:02:58;;;;;;;1.37;0.20;;;;;;;;;;5009653;28;20217;-85
2021/12/25 13:05:33;;;;;;;1.10;0.40;;;;;;;;;;5033315;28;20194;-85
2021/12/25 13:08:01;;;;;;;0.60;0.27;;;;;;;;;;5002665;28;20189;-85
2021/12/25 13:10:51;;;;;;;0.30;0.20;;;;;;;;;;5009935;28;20189;-85
2021/12/25 13:13:19;;;;;;;1.30;0.33;;;;;;;;;;5009755;28;20212;-84
2021/12/25 13:15:48;;;;;;;1.60;0.30;;;;;;;;;;5012080;28;20925;-85
2021/12/25 13:18:15;;;;;;;0.50;0.10;;;;;;;;;;5007240;28;20186;-85
2021/12/25 13:20:53;;;;;;;0.80;0.40;;;;;;;;;;5011494;28;20194;-84
2021/12/25 13:23:24;;;;;;;1.57;0.20;;;;;;;;;;5010418;28;20211;-85
2021/12/25 13:25:57;;;;;;;3.37;0.30;;;;;;;;;;5008281;28;20198;-84
2021/12/25 13:28:24;;;;;;;2.03;0.47;;;;;;;;;;5011919;28;20177;-84
2021/12/25 13:30:58;;;;;;;1.17;0.40;;;;;;;;;;5008906;28;20571;-84
2021/12/25 13:33:26;;;;;;;1.20;0.20;;;;;;;;;;5012311;28;20263;-84
2021/12/25 13:36:05;;;;;;;2.17;0.30;;;;;;;;;;5008742;28;20236;-84
2021/12/25 13:38:52;;;;;;;0.67;0.17;;;;;;;;;;5012735;28;20664;-84
2021/12/25 13:41:40;;;;;;;2.10;0.30;;;;;;;;;;5011293;28;20195;-84
2021/12/25 13:44:17;;;;;;;1.30;0.30;;;;;;;;;;5012519;28;20209;-85
2021/12/25 13:47:06;;;;;;;1.63;0.40;;;;;;;;;;5018299;28;20190;-84
2021/12/25 13:49:35;;;;;;;0.70;0.40;;;;;;;;;;5023945;28;20269;-85
2021/12/25 13:52:09;;;;;;;3.30;0.40;;;;;;;;;;5010942;28;20193;-85
2021/12/25 13:54:43;;;;;;;2.20;0.50;;;;;;;;;;5027924;28;20182;-84
2021/12/25 13:57:11;;;;;;;1.67;0.20;;;;;;;;;;5001160;28;20226;-84
2021/12/25 13:59:39;;;;;;;2.27;0.33;;;;;;;;;;5009547;28;20548;-84
2021/12/25 14:02:13;;;;;;;0.80;0.30;;;;;;;;;;5008390;28;20292;-83
2021/12/25 14:04:45;;;;;;;1.90;0.50;;;;;;;;;;5005870;28;20301;-84
2021/12/25 14:07:13;;;;;;;3.27;0.40;;;;;;;;;;5003430;28;20602;-84
2021/12/25 14:09:39;;;;;;;0.97;0.30;;;;;;;;;;5017402;28;20929;-84
2021/12/25 14:12:05;;;;;;;1.80;0.43;;;;;;;;;;5025771;28;20259;-84
2021/12/25 14:14:31;;;;;;;0.53;0.30;;;;;;;;;;5016584;28;20203;-84
2021/12/25 14:16:59;;;;;;;2.93;0.37;;;;;;;;;;5009454;28;20193;-84
2021/12/25 14:19:26;;;;;;;2.43;0.40;;;;;;;;;;5012876;28;20193;-84
2021/12/25 14:22:10;;;;;;;0.60;0.20;;;;;;;;;;5003417;28;20198;-84
2021/12/25 14:24:47;;;;;;;0.30;0.20;;;;;;;;;;5015257;28;20214;-85
2021/12/25 14:27:20;;;;;;;2.03;0.57;;;;;;;;;;5009226;28;20189;-85
2021/12/25 14:29:46;;;;;;;1.63;0.30;;;;;;;;;;5032054;28;20185;-85
2021/12/25 14:32:27;;;;;;;2.97;0.53;;;;;;;;;;5010433;28;20709;-85
2021/12/25 14:34:54;;;;;;;2.53;0.50;;;;;;;;;;5013991;28;20216;-85
2021/12/25 14:37:34;;;;;;;1.40;0.60;;;;;;;;;;5007614;28;20198;-84
2021/12/25 14:40:20;;;;;;;1.63;0.60;;;;;;;;;;5012474;28;20188;-84
2021/12/25 14:42:58;;;;;;;3.93;0.30;;;;;;;;;;4998261;28;20214;-84
2021/12/25 14:45:25;;;;;;;1.00;0.30;;;;;;;;;;5023227;28;20182;-83
2021/12/25 14:47:57;;;;;;;0.20;0.17;;;;;;;;;;5025078;28;20649;-84
2021/12/25 14:50:32;;;;;;;0.90;0.30;;;;;;;;;;5006950;28;20179;-84
2021/12/25 14:53:20;;;;;;;2.90;0.40;;;;;;;;;;5007733;28;20174;-83
2021/12/25 14:55:49;;;;;;;1.97;0.33;;;;;;;;;;5005480;28;20193;-84
2021/12/25 14:58:22;;;;;;;1.47;0.30;;;;;;;;;;5009859;28;20213;-84
2021/12/25 15:01:00;;;;;;;1.63;0.40;;;;;;;;;;5031149;28;20212;-84
2021/12/25 15:03:26;;;;;;;0.47;0.20;;;;;;;;;;5025412;28;20237;-84
2021/12/25 15:05:54;;;;;;;2.23;0.40;;;;;;;;;;5032877;28;20186;-84
2021/12/25 15:08:33;;;;;;;0.67;0.30;;;;;;;;;;5012489;28;20638;-84
2021/12/25 15:11:18;;;;;;;2.63;0.37;;;;;;;;;;5010014;28;20185;-84
2021/12/25 15:13:58;;;;;;;1.03;0.40;;;;;;;;;;5030804;28;20198;-84
2021/12/25 15:16:46;;;;;;;0.87;0.30;;;;;;;;;;5028905;28;20183;-84
2021/12/25 15:19:31;;;;;;;2.10;0.40;;;;;;;;;;5022003;28;20240;-83
2021/12/25 15:22:02;;;;;;;0.70;0.30;;;;;;;;;;5014510;28;20210;-83
2021/12/25 15:24:28;;;;;;;2.00;0.30;;;;;;;;;;5016561;28;20766;-84
2021/12/25 15:26:57;;;;;;;2.50;0.43;;;;;;;;;;5015033;28;20236;-84
2021/12/25 15:29:41;;;;;;;0.43;0.23;;;;;;;;;;5015440;28;20653;-84
2021/12/25 15:32:12;;;;;;;0.47;0.20;;;;;;;;;;5012321;28;20189;-84
2021/12/25 15:34:48;;;;;;;1.00;0.30;;;;;;;;;;5006603;28;20202;-84
2021/12/25 15:37:23;;;;;;;1.50;0.53;;;;;;;;;;5037586;28;20245;-84
2021/12/25 15:39:50;;;;;;;1.03;0.30;;;;;;;;;;5017503;28;20185;-84
2021/12/25 15:42:17;;;;;;;2.20;0.30;;;;;;;;;;5009402;28;20195;-83
2021/12/25 15:44:42;;;;;;;1.93;0.40;;;;;;;;;;5018215;28;20210;-83
2021/12/25 15:47:08;;;;;;;4.00;0.40;;;;;;;;;;5007435;28;20816;-84
2021/12/25 15:49:33;;;;;;;1.40;0.20;;;;;;;;;;5016309;28;20548;-84
2021/12/25 15:51:59;;;;;;;0.93;0.30;;;;;;;;;;5013638;28;20233;-83
2021/12/25 15:54:27;;;;;;;1.27;0.50;;;;;;;;;;5014483;28;20329;-84
2021/12/25 15:56:58;;;;;;;3.10;0.33;;;;;;;;;;5015266;28;20193;-83
2021/12/25 15:59:33;;;;;;;2.80;0.57;;;;;;;;;;5016198;28;20225;-84
2021/12/25 16:01:59;;;;;;;3.93;0.40;;;;;;;;;;5012096;28;20225;-84
2021/12/25 16:04:25;;;;;;;4.53;0.87;;;;;;;;;;5033041;28;20617;-84
2021/12/25 16:06:51;;;;;;;0.80;0.27;;;;;;;;;;5008838;28;20178;-84
2021/12/25 16:09:17;;;;;;;1.53;0.73;;;;;;;;;;5017967;28;20186;-82
2021/12/25 16:11:42;;;;;;;1.70;0.67;;;;;;;;;;5028519;28;20608;-83